sensor_id;sensor_type;location;lat;lon;timestamp;pressure;altitude;pressure_sealevel;temperature;humidity
50123;BME280;36021;48.670;6.184;2022-07-29T00:02:10;98765.91;;;22.73;100.00
50123;BME280;36021;48.670;6.184;2022-07-29T00:04:36;98761.91;;;22.74;100.00
50123;BME280;36021;48.670;6.184;2022-07-29T00:07:03;98757.50;;;22.76;100.00
50123;BME280;36021;48.670;6.184;2022-07-29T00:09:31;98763.13;;;22.76;100.00
50123;BME280;36021;48.670;6.184;2022-07-29T00:12:00;98756.59;;;22.69;100.00
50123;BME280;36021;48.670;6.184;2022-07-29T00:14:26;98753.84;;;22.46;100.00
50123;BME280;36021;48.670;6.184;2022-07-29T00:16:52;98755.94;;;22.23;100.00
50123;BME280;36021;48.670;6.184;2022-07-29T00:19:19;98753.56;;;22.25;100.00
50123;BME280;36021;48.670;6.184;2022-07-29T00:21:44;98758.38;;;22.24;100.00
50123;BME280;36021;48.670;6.184;2022-07-29T00:24:11;98751.25;;;22.30;100.00
50123;BME280;36021;48.670;6.184;2022-07-29T00:26:37;98753.66;;;22.32;100.00
50123;BME280;36021;48.670;6.184;2022-07-29T00:29:03;98739.94;;;22.27;100.00
50123;BME280;36021;48.670;6.184;2022-07-29T00:31:29;98741.63;;;22.31;100.00
50123;BME280;36021;48.670;6.184;2022-07-29T00:33:56;98740.72;;;22.24;100.00
50123;BME280;36021;48.670;6.184;2022-07-29T00:36:22;98735.84;;;22.21;100.00
50123;BME280;36021;48.670;6.184;2022-07-29T00:38:50;98735.03;;;22.20;100.00
50123;BME280;36021;48.670;6.184;2022-07-29T00:41:17;98738.88;;;22.09;100.00
50123;BME280;36021;48.670;6.184;2022-07-29T00:43:43;98736.50;;;22.11;100.00
50123;BME280;36021;48.670;6.184;2022-07-29T00:46:09;98728.84;;;22.08;100.00
50123;BME280;36021;48.670;6.184;2022-07-29T00:48:36;98729.09;;;21.99;100.00
50123;BME280;36021;48.670;6.184;2022-07-29T00:51:03;98726.69;;;21.98;100.00
50123;BME280;36021;48.670;6.184;2022-07-29T00:53:31;98729.84;;;21.96;100.00
50123;BME280;36021;48.670;6.184;2022-07-29T00:55:58;98730.56;;;21.90;100.00
50123;BME280;36021;48.670;6.184;2022-07-29T00:58:24;98726.06;;;21.85;100.00
50123;BME280;36021;48.670;6.184;2022-07-29T01:00:51;98734.84;;;21.83;100.00
50123;BME280;36021;48.670;6.184;2022-07-29T01:03:17;98721.25;;;21.86;100.00
50123;BME280;36021;48.670;6.184;2022-07-29T01:05:44;98724.00;;;21.82;100.00
50123;BME280;36021;48.670;6.184;2022-07-29T01:08:12;98721.91;;;21.75;100.00
50123;BME280;36021;48.670;6.184;2022-07-29T01:10:39;98727.81;;;21.70;100.00
50123;BME280;36021;48.670;6.184;2022-07-29T01:13:09;98720.91;;;21.64;100.00
50123;BME280;36021;48.670;6.184;2022-07-29T01:15:49;98719.59;;;21.58;100.00
50123;BME280;36021;48.670;6.184;2022-07-29T01:18:26;98723.22;;;21.59;100.00
50123;BME280;36021;48.670;6.184;2022-07-29T01:29:02;98720.97;;;21.45;100.00
50123;BME280;36021;48.670;6.184;2022-07-29T01:34:17;98729.69;;;21.40;100.00
50123;BME280;36021;48.670;6.184;2022-07-29T01:36:50;98724.75;;;21.34;100.00
50123;BME280;36021;48.670;6.184;2022-07-29T01:39:26;98715.91;;;21.32;100.00
50123;BME280;36021;48.670;6.184;2022-07-29T01:41:59;98721.53;;;21.32;100.00
50123;BME280;36021;48.670;6.184;2022-07-29T01:44:38;98721.47;;;21.28;100.00
50123;BME280;36021;48.670;6.184;2022-07-29T01:47:11;98721.41;;;21.24;100.00
50123;BME280;36021;48.670;6.184;2022-07-29T01:49:42;98722.63;;;21.27;100.00
50123;BME280;36021;48.670;6.184;2022-07-29T01:52:19;98728.56;;;21.22;100.00
50123;BME280;36021;48.670;6.184;2022-07-29T01:54:51;98734.16;;;21.22;100.00
50123;BME280;36021;48.670;6.184;2022-07-29T01:57:19;98734.84;;;21.15;100.00
50123;BME280;36021;48.670;6.184;2022-07-29T01:59:46;98732.41;;;21.14;100.00
50123;BME280;36021;48.670;6.184;2022-07-29T02:02:14;98739.63;;;21.15;100.00
50123;BME280;36021;48.670;6.184;2022-07-29T02:04:42;98736.47;;;21.16;100.00
50123;BME280;36021;48.670;6.184;2022-07-29T02:07:13;98735.72;;;21.19;100.00
50123;BME280;36021;48.670;6.184;2022-07-29T02:09:43;98736.97;;;21.22;100.00
50123;BME280;36021;48.670;6.184;2022-07-29T02:12:13;98740.66;;;21.26;100.00
50123;BME280;36021;48.670;6.184;2022-07-29T02:14:51;98734.88;;;21.38;100.00
50123;BME280;36021;48.670;6.184;2022-07-29T02:17:23;98728.16;;;21.43;100.00
50123;BME280;36021;48.670;6.184;2022-07-29T02:19:52;98733.06;;;21.49;100.00
50123;BME280;36021;48.670;6.184;2022-07-29T02:22:20;98732.31;;;21.52;100.00
50123;BME280;36021;48.670;6.184;2022-07-29T02:24:48;98729.94;;;21.54;100.00
50123;BME280;36021;48.670;6.184;2022-07-29T02:27:17;98736.44;;;21.58;100.00
50123;BME280;36021;48.670;6.184;2022-07-29T02:29:45;98730.34;;;21.56;100.00
50123;BME280;36021;48.670;6.184;2022-07-29T02:32:13;98735.34;;;21.66;100.00
50123;BME280;36021;48.670;6.184;2022-07-29T02:34:42;98734.16;;;21.67;100.00
50123;BME280;36021;48.670;6.184;2022-07-29T02:37:11;98747.16;;;21.75;100.00
50123;BME280;36021;48.670;6.184;2022-07-29T02:39:41;98744.75;;;21.77;100.00
50123;BME280;36021;48.670;6.184;2022-07-29T02:42:11;98743.94;;;21.77;100.00
50123;BME280;36021;48.670;6.184;2022-07-29T02:44:38;98741.63;;;21.82;100.00
50123;BME280;36021;48.670;6.184;2022-07-29T02:47:19;98743.19;;;21.80;100.00
50123;BME280;36021;48.670;6.184;2022-07-29T02:52:21;98745.75;;;21.89;100.00
50123;BME280;36021;48.670;6.184;2022-07-29T02:54:55;98746.94;;;21.88;100.00
50123;BME280;36021;48.670;6.184;2022-07-29T02:57:42;98746.06;;;21.83;100.00
50123;BME280;36021;48.670;6.184;2022-07-29T03:00:09;98743.66;;;21.59;100.00
50123;BME280;36021;48.670;6.184;2022-07-29T03:02:42;98750.00;;;21.56;100.00
50123;BME280;36021;48.670;6.184;2022-07-29T03:05:13;98751.56;;;21.54;100.00
50123;BME280;36021;48.670;6.184;2022-07-29T03:07:43;98758.19;;;21.65;100.00
50123;BME280;36021;48.670;6.184;2022-07-29T03:10:12;98758.19;;;21.65;100.00
50123;BME280;36021;48.670;6.184;2022-07-29T03:12:40;98757.50;;;21.71;100.00
50123;BME280;36021;48.670;6.184;2022-07-29T03:15:07;98758.38;;;21.75;100.00
50123;BME280;36021;48.670;6.184;2022-07-29T03:17:33;98757.16;;;21.76;100.00
50123;BME280;36021;48.670;6.184;2022-07-29T03:20:00;98761.59;;;21.77;100.00
50123;BME280;36021;48.670;6.184;2022-07-29T03:22:27;98769.69;;;21.82;100.00
50123;BME280;36021;48.670;6.184;2022-07-29T03:24:53;98757.91;;;21.73;100.00
50123;BME280;36021;48.670;6.184;2022-07-29T03:27:19;98766.84;;;21.79;100.00
50123;BME280;36021;48.670;6.184;2022-07-29T03:29:45;98764.72;;;21.72;100.00
50123;BME280;36021;48.670;6.184;2022-07-29T03:32:10;98762.22;;;21.67;100.00
50123;BME280;36021;48.670;6.184;2022-07-29T03:34:37;98766.88;;;21.60;100.00
50123;BME280;36021;48.670;6.184;2022-07-29T03:37:04;98756.13;;;21.62;100.00
50123;BME280;36021;48.670;6.184;2022-07-29T03:39:34;98761.28;;;21.60;100.00
50123;BME280;36021;48.670;6.184;2022-07-29T03:42:00;98758.13;;;21.61;100.00
50123;BME280;36021;48.670;6.184;2022-07-29T03:44:27;98763.66;;;21.58;100.00
50123;BME280;36021;48.670;6.184;2022-07-29T03:46:55;98760.84;;;21.58;100.00
50123;BME280;36021;48.670;6.184;2022-07-29T03:49:26;98768.16;;;21.62;100.00
50123;BME280;36021;48.670;6.184;2022-07-29T03:51:53;98762.91;;;21.61;100.00
50123;BME280;36021;48.670;6.184;2022-07-29T03:54:18;98765.16;;;21.52;100.00
50123;BME280;36021;48.670;6.184;2022-07-29T03:56:46;98772.75;;;21.51;100.00
50123;BME280;36021;48.670;6.184;2022-07-29T03:59:15;98774.63;;;21.44;100.00
50123;BME280;36021;48.670;6.184;2022-07-29T04:01:42;98772.28;;;21.46;100.00
50123;BME280;36021;48.670;6.184;2022-07-29T04:04:08;98769.75;;;21.41;100.00
50123;BME280;36021;48.670;6.184;2022-07-29T04:06:41;98772.13;;;21.39;100.00
50123;BME280;36021;48.670;6.184;2022-07-29T04:09:08;98772.00;;;21.32;100.00
50123;BME280;36021;48.670;6.184;2022-07-29T04:11:36;98773.63;;;21.33;100.00
50123;BME280;36021;48.670;6.184;2022-07-29T04:14:03;98770.28;;;21.27;100.00
50123;BME280;36021;48.670;6.184;2022-07-29T04:16:29;98773.09;;;21.27;100.00
50123;BME280;36021;48.670;6.184;2022-07-29T04:18:55;98775.88;;;21.23;100.00
50123;BME280;36021;48.670;6.184;2022-07-29T04:21:21;98780.59;;;21.19;100.00
50123;BME280;36021;48.670;6.184;2022-07-29T04:23:47;98774.16;;;21.19;100.00
50123;BME280;36021;48.670;6.184;2022-07-29T04:26:19;98785.00;;;21.20;100.00
50123;BME280;36021;48.670;6.184;2022-07-29T04:28:45;98786.25;;;21.23;100.00
50123;BME280;36021;48.670;6.184;2022-07-29T04:31:12;98777.41;;;21.21;100.00
50123;BME280;36021;48.670;6.184;2022-07-29T04:33:38;98782.06;;;21.13;100.00
50123;BME280;36021;48.670;6.184;2022-07-29T04:36:04;98783.59;;;21.11;100.00
50123;BME280;36021;48.670;6.184;2022-07-29T04:38:31;98785.94;;;21.09;100.00
50123;BME280;36021;48.670;6.184;2022-07-29T04:40:56;98793.22;;;21.10;100.00
50123;BME280;36021;48.670;6.184;2022-07-29T04:43:22;98794.34;;;21.09;100.00
50123;BME280;36021;48.670;6.184;2022-07-29T04:45:48;98792.47;;;21.13;100.00
50123;BME280;36021;48.670;6.184;2022-07-29T04:48:13;98795.34;;;21.16;100.00
50123;BME280;36021;48.670;6.184;2022-07-29T04:50:40;98802.19;;;21.19;100.00
50123;BME280;36021;48.670;6.184;2022-07-29T04:53:06;98788.31;;;21.26;100.00
50123;BME280;36021;48.670;6.184;2022-07-29T04:55:33;98791.13;;;21.26;100.00
50123;BME280;36021;48.670;6.184;2022-07-29T04:57:58;98796.72;;;21.26;100.00
50123;BME280;36021;48.670;6.184;2022-07-29T05:00:24;98795.59;;;21.30;100.00
50123;BME280;36021;48.670;6.184;2022-07-29T05:02:50;98799.69;;;21.33;100.00
50123;BME280;36021;48.670;6.184;2022-07-29T05:05:15;98799.28;;;21.35;100.00
50123;BME280;36021;48.670;6.184;2022-07-29T05:07:41;98809.84;;;21.41;100.00
50123;BME280;36021;48.670;6.184;2022-07-29T05:10:08;98807.34;;;21.36;100.00
50123;BME280;36021;48.670;6.184;2022-07-29T05:12:35;98798.69;;;21.45;100.00
50123;BME280;36021;48.670;6.184;2022-07-29T05:15:01;98802.72;;;21.47;100.00
50123;BME280;36021;48.670;6.184;2022-07-29T05:17:26;98809.16;;;21.48;100.00
50123;BME280;36021;48.670;6.184;2022-07-29T05:19:52;98817.22;;;21.49;100.00
50123;BME280;36021;48.670;6.184;2022-07-29T05:22:19;98814.00;;;21.51;100.00
50123;BME280;36021;48.670;6.184;2022-07-29T05:24:45;98817.63;;;21.51;100.00
50123;BME280;36021;48.670;6.184;2022-07-29T05:27:11;98815.72;;;21.55;100.00
50123;BME280;36021;48.670;6.184;2022-07-29T05:29:36;98820.66;;;21.62;100.00
50123;BME280;36021;48.670;6.184;2022-07-29T05:32:03;98820.56;;;21.58;100.00
50123;BME280;36021;48.670;6.184;2022-07-29T05:34:30;98815.09;;;21.65;100.00
50123;BME280;36021;48.670;6.184;2022-07-29T05:36:57;98814.78;;;21.70;100.00
50123;BME280;36021;48.670;6.184;2022-07-29T05:39:23;98817.66;;;21.74;100.00
50123;BME280;36021;48.670;6.184;2022-07-29T05:41:49;98820.94;;;21.79;100.00
50123;BME280;36021;48.670;6.184;2022-07-29T05:44:15;98817.78;;;21.81;100.00
50123;BME280;36021;48.670;6.184;2022-07-29T05:46:43;98823.31;;;21.77;100.00
50123;BME280;36021;48.670;6.184;2022-07-29T05:49:09;98821.00;;;21.83;100.00
50123;BME280;36021;48.670;6.184;2022-07-29T05:51:35;98817.19;;;21.91;100.00
50123;BME280;36021;48.670;6.184;2022-07-29T05:54:01;98819.09;;;21.87;100.00
50123;BME280;36021;48.670;6.184;2022-07-29T05:56:27;98826.56;;;21.99;100.00
50123;BME280;36021;48.670;6.184;2022-07-29T05:58:53;98824.97;;;22.01;100.00
50123;BME280;36021;48.670;6.184;2022-07-29T06:01:18;98830.66;;;22.05;100.00
50123;BME280;36021;48.670;6.184;2022-07-29T06:03:44;98830.78;;;22.12;100.00
50123;BME280;36021;48.670;6.184;2022-07-29T06:06:10;98831.97;;;22.11;100.00
50123;BME280;36021;48.670;6.184;2022-07-29T06:08:36;98839.63;;;22.14;100.00
50123;BME280;36021;48.670;6.184;2022-07-29T06:11:04;98839.56;;;22.10;100.00
50123;BME280;36021;48.670;6.184;2022-07-29T06:13:31;98838.13;;;22.20;100.00
50123;BME280;36021;48.670;6.184;2022-07-29T06:15:56;98830.56;;;22.24;100.00
50123;BME280;36021;48.670;6.184;2022-07-29T06:18:23;98832.00;;;22.14;100.00
50123;BME280;36021;48.670;6.184;2022-07-29T06:20:52;98833.63;;;22.15;100.00
50123;BME280;36021;48.670;6.184;2022-07-29T06:23:19;98823.91;;;22.09;100.00
50123;BME280;36021;48.670;6.184;2022-07-29T06:25:45;98831.09;;;22.07;100.00
50123;BME280;36021;48.670;6.184;2022-07-29T06:28:11;98835.41;;;22.01;100.00
50123;BME280;36021;48.670;6.184;2022-07-29T06:30:37;98851.16;;;22.09;100.00
50123;BME280;36021;48.670;6.184;2022-07-29T06:33:03;98852.03;;;22.13;100.00
50123;BME280;36021;48.670;6.184;2022-07-29T06:35:29;98858.59;;;22.20;100.00
50123;BME280;36021;48.670;6.184;2022-07-29T06:37:55;98856.91;;;22.16;100.00
50123;BME280;36021;48.670;6.184;2022-07-29T06:40:21;98859.41;;;22.21;100.00
50123;BME280;36021;48.670;6.184;2022-07-29T06:43:05;98850.84;;;22.14;100.00
50123;BME280;36021;48.670;6.184;2022-07-29T06:45:34;98857.78;;;22.20;100.00
50123;BME280;36021;48.670;6.184;2022-07-29T06:48:00;98846.94;;;22.18;100.00
50123;BME280;36021;48.670;6.184;2022-07-29T06:50:27;98855.31;;;22.41;100.00
50123;BME280;36021;48.670;6.184;2022-07-29T06:52:53;98860.94;;;22.41;100.00
50123;BME280;36021;48.670;6.184;2022-07-29T06:55:18;98859.97;;;22.56;100.00
50123;BME280;36021;48.670;6.184;2022-07-29T06:57:46;98854.13;;;22.68;100.00
50123;BME280;36021;48.670;6.184;2022-07-29T07:00:12;98868.31;;;22.75;100.00
50123;BME280;36021;48.670;6.184;2022-07-29T07:02:38;98859.72;;;22.95;100.00
50123;BME280;36021;48.670;6.184;2022-07-29T07:05:04;98868.84;;;23.14;100.00
50123;BME280;36021;48.670;6.184;2022-07-29T07:07:31;98867.53;;;23.38;100.00
50123;BME280;36021;48.670;6.184;2022-07-29T07:09:57;98877.38;;;23.51;100.00
50123;BME280;36021;48.670;6.184;2022-07-29T07:12:25;98868.06;;;23.47;100.00
50123;BME280;36021;48.670;6.184;2022-07-29T07:14:51;98868.63;;;23.60;100.00
50123;BME280;36021;48.670;6.184;2022-07-29T07:17:16;98868.00;;;23.77;100.00
50123;BME280;36021;48.670;6.184;2022-07-29T07:19:44;98877.06;;;23.97;100.00
50123;BME280;36021;48.670;6.184;2022-07-29T07:22:11;98885.31;;;24.16;100.00
50123;BME280;36021;48.670;6.184;2022-07-29T07:24:36;98885.31;;;24.16;100.00
50123;BME280;36021;48.670;6.184;2022-07-29T07:27:02;98870.81;;;24.14;100.00
50123;BME280;36021;48.670;6.184;2022-07-29T07:29:28;98877.41;;;23.92;100.00
50123;BME280;36021;48.670;6.184;2022-07-29T07:31:53;98885.13;;;23.98;100.00
50123;BME280;36021;48.670;6.184;2022-07-29T07:34:20;98880.34;;;24.06;100.00
50123;BME280;36021;48.670;6.184;2022-07-29T07:36:47;98886.94;;;24.17;100.00
50123;BME280;36021;48.670;6.184;2022-07-29T07:39:13;98891.84;;;24.27;100.00
50123;BME280;36021;48.670;6.184;2022-07-29T07:41:38;98891.91;;;24.34;100.00
50123;BME280;36021;48.670;6.184;2022-07-29T07:44:04;98882.19;;;24.28;100.00
50123;BME280;36021;48.670;6.184;2022-07-29T07:46:33;98879.13;;;24.44;100.00
50123;BME280;36021;48.670;6.184;2022-07-29T07:48:59;98875.47;;;24.43;100.00
50123;BME280;36021;48.670;6.184;2022-07-29T07:51:24;98879.88;;;24.37;100.00
50123;BME280;36021;48.670;6.184;2022-07-29T07:53:50;98891.88;;;24.30;100.00
50123;BME280;36021;48.670;6.184;2022-07-29T07:56:16;98889.53;;;24.40;100.00
50123;BME280;36021;48.670;6.184;2022-07-29T07:58:42;98889.25;;;24.55;100.00
50123;BME280;36021;48.670;6.184;2022-07-29T08:01:08;98888.19;;;24.74;100.00
50123;BME280;36021;48.670;6.184;2022-07-29T08:03:34;98886.75;;;24.98;100.00
50123;BME280;36021;48.670;6.184;2022-07-29T08:06:01;98886.41;;;25.06;100.00
50123;BME280;36021;48.670;6.184;2022-07-29T08:08:27;98887.66;;;25.12;100.00
50123;BME280;36021;48.670;6.184;2022-07-29T08:10:54;98883.59;;;25.10;100.00
50123;BME280;36021;48.670;6.184;2022-07-29T08:13:26;98889.22;;;25.03;100.00
50123;BME280;36021;48.670;6.184;2022-07-29T08:15:56;98892.84;;;25.00;100.00
50123;BME280;36021;48.670;6.184;2022-07-29T08:18:39;98897.25;;;25.01;100.00
50123;BME280;36021;48.670;6.184;2022-07-29T08:21:08;98895.00;;;25.31;100.00
50123;BME280;36021;48.670;6.184;2022-07-29T08:23:34;98894.13;;;25.20;100.00
50123;BME280;36021;48.670;6.184;2022-07-29T08:26:12;98892.94;;;25.24;100.00
50123;BME280;36021;48.670;6.184;2022-07-29T08:28:41;98888.97;;;25.36;100.00
50123;BME280;36021;48.670;6.184;2022-07-29T08:31:07;98889.00;;;25.47;100.00
50123;BME280;36021;48.670;6.184;2022-07-29T08:33:33;98887.91;;;25.65;100.00
50123;BME280;36021;48.670;6.184;2022-07-29T08:35:59;98892.38;;;25.73;100.00
50123;BME280;36021;48.670;6.184;2022-07-29T08:38:25;98893.59;;;25.79;100.00
50123;BME280;36021;48.670;6.184;2022-07-29T08:40:53;98898.84;;;25.77;100.00
50123;BME280;36021;48.670;6.184;2022-07-29T08:43:19;98900.91;;;25.95;100.00
50123;BME280;36021;48.670;6.184;2022-07-29T08:45:47;98902.13;;;26.04;100.00
50123;BME280;36021;48.670;6.184;2022-07-29T08:48:18;98895.28;;;26.12;100.00
50123;BME280;36021;48.670;6.184;2022-07-29T08:50:48;98898.56;;;26.35;100.00
50123;BME280;36021;48.670;6.184;2022-07-29T08:53:17;98899.78;;;26.45;100.00
50123;BME280;36021;48.670;6.184;2022-07-29T08:55:45;98901.41;;;26.57;100.00
50123;BME280;36021;48.670;6.184;2022-07-29T08:58:11;98904.63;;;26.55;100.00
50123;BME280;36021;48.670;6.184;2022-07-29T09:00:41;98907.06;;;26.53;100.00
50123;BME280;36021;48.670;6.184;2022-07-29T09:03:08;98896.94;;;26.31;100.00
50123;BME280;36021;48.670;6.184;2022-07-29T09:05:34;98903.41;;;26.35;100.00
50123;BME280;36021;48.670;6.184;2022-07-29T09:08:01;98901.81;;;26.30;100.00
50123;BME280;36021;48.670;6.184;2022-07-29T09:10:27;98901.00;;;26.37;100.00
50123;BME280;36021;48.670;6.184;2022-07-29T09:12:55;98898.16;;;26.51;100.00
50123;BME280;36021;48.670;6.184;2022-07-29T09:15:20;98896.94;;;26.45;100.00
50123;BME280;36021;48.670;6.184;2022-07-29T09:17:48;98901.00;;;26.37;100.00
50123;BME280;36021;48.670;6.184;2022-07-29T09:20:19;98901.78;;;26.41;100.00
50123;BME280;36021;48.670;6.184;2022-07-29T09:22:47;98898.16;;;26.65;100.00
50123;BME280;36021;48.670;6.184;2022-07-29T09:25:35;98895.75;;;26.50;100.00
50123;BME280;36021;48.670;6.184;2022-07-29T09:28:14;98909.88;;;26.60;100.00
50123;BME280;36021;48.670;6.184;2022-07-29T09:30:54;98905.00;;;26.75;100.00
50123;BME280;36021;48.670;6.184;2022-07-29T09:33:22;98900.97;;;26.90;100.00
50123;BME280;36021;48.670;6.184;2022-07-29T09:36:07;98906.63;;;26.97;100.00
50123;BME280;36021;48.670;6.184;2022-07-29T09:38:33;98900.56;;;27.06;100.00
50123;BME280;36021;48.670;6.184;2022-07-29T09:41:03;98900.13;;;27.11;100.00
50123;BME280;36021;48.670;6.184;2022-07-29T09:43:29;98903.34;;;27.16;100.00
50123;BME280;36021;48.670;6.184;2022-07-29T09:45:55;98902.13;;;27.14;100.00
50123;BME280;36021;48.670;6.184;2022-07-29T09:48:24;98910.25;;;27.08;100.00
50123;BME280;36021;48.670;6.184;2022-07-29T09:50:52;98906.63;;;26.97;100.00
50123;BME280;36021;48.670;6.184;2022-07-29T09:53:36;98909.06;;;26.88;100.00
50123;BME280;36021;48.670;6.184;2022-07-29T09:56:04;98907.44;;;26.90;100.00
50123;BME280;36021;48.670;6.184;2022-07-29T09:58:31;98903.38;;;27.06;100.00
50123;BME280;36021;48.670;6.184;2022-07-29T10:00:59;98906.97;;;27.17;100.00
50123;BME280;36021;48.670;6.184;2022-07-29T10:03:25;98908.25;;;27.02;100.00
50123;BME280;36021;48.670;6.184;2022-07-29T10:06:10;98911.06;;;26.98;100.00
50123;BME280;36021;48.670;6.184;2022-07-29T10:08:37;98916.28;;;27.21;100.00
50123;BME280;36021;48.670;6.184;2022-07-29T10:11:10;98912.97;;;27.36;100.00
50123;BME280;36021;48.670;6.184;2022-07-29T10:13:38;98914.16;;;27.42;100.00
50123;BME280;36021;48.670;6.184;2022-07-29T10:16:05;98911.41;;;27.32;100.00
50123;BME280;36021;48.670;6.184;2022-07-29T10:18:32;98913.81;;;27.23;100.00
50123;BME280;36021;48.670;6.184;2022-07-29T10:21:00;98912.25;;;27.22;100.00
50123;BME280;36021;48.670;6.184;2022-07-29T10:23:28;98904.56;;;27.19;100.00
50123;BME280;36021;48.670;6.184;2022-07-29T10:25:54;98906.97;;;27.20;100.00
50123;BME280;36021;48.670;6.184;2022-07-29T10:28:20;98901.66;;;27.33;100.00
50123;BME280;36021;48.670;6.184;2022-07-29T10:30:49;98896.81;;;27.44;100.00
50123;BME280;36021;48.670;6.184;2022-07-29T10:36:05;98896.78;;;27.58;100.00
50123;BME280;36021;48.670;6.184;2022-07-29T10:38:48;98896.66;;;27.76;100.00
50123;BME280;36021;48.670;6.184;2022-07-29T10:43:54;98901.25;;;28.21;100.00
50123;BME280;36021;48.670;6.184;2022-07-29T10:46:21;98891.25;;;28.58;100.00
50123;BME280;36021;48.670;6.184;2022-07-29T10:49:09;98902.00;;;28.32;100.00
50123;BME280;36021;48.670;6.184;2022-07-29T10:59:45;98902.88;;;28.26;100.00
50123;BME280;36021;48.670;6.184;2022-07-29T11:05:20;98899.38;;;28.59;100.00
50123;BME280;36021;48.670;6.184;2022-07-29T11:10:39;98893.91;;;28.82;100.00
50123;BME280;36021;48.670;6.184;2022-07-29T11:13:05;98890.59;;;28.87;100.00
50123;BME280;36021;48.670;6.184;2022-07-29T11:15:57;98892.06;;;29.03;100.00
50123;BME280;36021;48.670;6.184;2022-07-29T11:18:23;98893.81;;;29.30;100.00
50123;BME280;36021;48.670;6.184;2022-07-29T11:20:50;98889.97;;;29.10;100.00
50123;BME280;36021;48.670;6.184;2022-07-29T11:26:14;98885.78;;;29.56;100.00
50123;BME280;36021;48.670;6.184;2022-07-29T11:28:51;98893.00;;;29.64;100.00
50123;BME280;36021;48.670;6.184;2022-07-29T11:31:31;98891.06;;;29.57;100.00
50123;BME280;36021;48.670;6.184;2022-07-29T11:34:23;98889.19;;;29.43;100.00
50123;BME280;36021;48.670;6.184;2022-07-29T11:39:44;98887.28;;;29.33;100.00
50123;BME280;36021;48.670;6.184;2022-07-29T11:47:24;98886.94;;;28.90;100.00
50123;BME280;36021;48.670;6.184;2022-07-29T11:49:52;98886.09;;;28.93;100.00
50123;BME280;36021;48.670;6.184;2022-07-29T11:52:19;98880.66;;;28.69;100.00
50123;BME280;36021;48.670;6.184;2022-07-29T11:54:48;98885.84;;;28.77;100.00
50123;BME280;36021;48.670;6.184;2022-07-29T11:57:18;98885.63;;;28.99;100.00
50123;BME280;36021;48.670;6.184;2022-07-29T11:59:45;98883.50;;;29.06;100.00
50123;BME280;36021;48.670;6.184;2022-07-29T12:02:13;98884.59;;;28.82;100.00
50123;BME280;36021;48.670;6.184;2022-07-29T12:04:56;98870.78;;;29.21;100.00
50123;BME280;36021;48.670;6.184;2022-07-29T12:07:29;98867.47;;;29.30;100.00
50123;BME280;36021;48.670;6.184;2022-07-29T12:09:54;98865.69;;;29.73;100.00
50123;BME280;36021;48.670;6.184;2022-07-29T12:12:21;98868.47;;;30.07;100.00
50123;BME280;36021;48.670;6.184;2022-07-29T12:14:47;98862.13;;;29.96;100.00
50123;BME280;36021;48.670;6.184;2022-07-29T12:17:30;98863.34;;;30.22;100.00
50123;BME280;36021;48.670;6.184;2022-07-29T12:19:58;98867.25;;;30.31;100.00
50123;BME280;36021;48.670;6.184;2022-07-29T12:24:55;98877.63;;;30.45;100.00
50123;BME280;36021;48.670;6.184;2022-07-29T12:27:22;98874.44;;;30.43;100.00
50123;BME280;36021;48.670;6.184;2022-07-29T12:30:03;98871.78;;;30.56;100.00
50123;BME280;36021;48.670;6.184;2022-07-29T12:32:44;98869.75;;;30.56;100.00
50123;BME280;36021;48.670;6.184;2022-07-29T12:35:16;98867.59;;;30.83;100.00
50123;BME280;36021;48.670;6.184;2022-07-29T12:37:43;98868.72;;;31.13;100.00
50123;BME280;36021;48.670;6.184;2022-07-29T12:40:12;98865.44;;;31.14;100.00
50123;BME280;36021;48.670;6.184;2022-07-29T12:42:39;98865.13;;;31.48;100.00
50123;BME280;36021;48.670;6.184;2022-07-29T12:45:05;98859.75;;;31.34;100.00
50123;BME280;36021;48.670;6.184;2022-07-29T12:47:33;98863.44;;;31.54;100.00
50123;BME280;36021;48.670;6.184;2022-07-29T12:50:10;98853.72;;;31.48;100.00
50123;BME280;36021;48.670;6.184;2022-07-29T12:52:36;98859.00;;;31.69;100.00
50123;BME280;36021;48.670;6.184;2022-07-29T12:55:02;98858.81;;;31.60;100.00
50123;BME280;36021;48.670;6.184;2022-07-29T12:57:29;98858.63;;;31.51;100.00
50123;BME280;36021;48.670;6.184;2022-07-29T13:00:15;98861.25;;;31.38;100.00
50123;BME280;36021;48.670;6.184;2022-07-29T13:02:42;98865.16;;;31.68;100.00
50123;BME280;36021;48.670;6.184;2022-07-29T13:05:11;98862.22;;;31.71;100.00
50123;BME280;36021;48.670;6.184;2022-07-29T13:07:38;98863.53;;;32.22;99.62
50123;BME280;36021;48.670;6.184;2022-07-29T13:10:15;98859.00;;;32.57;95.49
50123;BME280;36021;48.670;6.184;2022-07-29T13:13:07;98863.81;;;32.76;93.82
50123;BME280;36021;48.670;6.184;2022-07-29T13:15:41;98862.47;;;32.81;92.83
50123;BME280;36021;48.670;6.184;2022-07-29T13:18:30;98866.00;;;33.17;90.76
50123;BME280;36021;48.670;6.184;2022-07-29T13:21:13;98873.03;;;33.13;87.58
50123;BME280;36021;48.670;6.184;2022-07-29T13:23:39;98872.28;;;33.82;83.63
50123;BME280;36021;48.670;6.184;2022-07-29T13:26:09;98873.00;;;34.75;80.71
50123;BME280;36021;48.670;6.184;2022-07-29T13:28:35;98873.34;;;35.67;76.09
50123;BME280;36021;48.670;6.184;2022-07-29T13:31:01;98874.19;;;36.78;75.14
50123;BME280;36021;48.670;6.184;2022-07-29T13:33:27;98877.75;;;37.82;71.85
50123;BME280;36021;48.670;6.184;2022-07-29T13:35:52;98879.06;;;37.09;72.79
50123;BME280;36021;48.670;6.184;2022-07-29T13:38:18;98874.56;;;37.71;72.47
50123;BME280;36021;48.670;6.184;2022-07-29T13:40:44;98870.91;;;39.58;65.47
50123;BME280;36021;48.670;6.184;2022-07-29T13:43:10;98873.56;;;40.15;66.18
50123;BME280;36021;48.670;6.184;2022-07-29T13:45:36;98877.75;;;40.98;60.42